createdAt,value
2017-12-04T00:00:56.111Z,4.51
2017-12-04T00:02:05.846Z,4.5
2017-12-04T00:03:15.572Z,4.5
2017-12-04T00:04:25.287Z,4.53
2017-12-04T00:05:35.335Z,4.44
2017-12-04T00:06:44.559Z,4.61
2017-12-04T00:07:54.571Z,4.61
2017-12-04T00:09:04.572Z,4.57
2017-12-04T00:10:14.026Z,4.62
2017-12-04T00:11:23.487Z,4.56
2017-12-04T00:12:33.266Z,4.62
2017-12-04T00:13:43.015Z,4.61
2017-12-04T00:14:52.504Z,4.61
2017-12-04T00:16:02.489Z,4.69
2017-12-04T00:17:12.479Z,4.59
2017-12-04T00:18:22.468Z,4.59
2017-12-04T00:19:32.186Z,4.59
2017-12-04T00:20:41.914Z,4.5
2017-12-04T00:21:51.371Z,4.64
2017-12-04T00:23:01.147Z,4.54
2017-12-04T00:24:10.876Z,4.59
2017-12-04T00:25:20.355Z,4.57
2017-12-04T00:26:30.362Z,4.59
2017-12-04T00:27:40.081Z,4.61
2017-12-04T00:28:49.541Z,4.54
2017-12-04T00:29:59.585Z,4.65
2017-12-04T00:31:09.044Z,4.54
2017-12-04T00:32:19.028Z,4.59
2017-12-04T00:33:28.500Z,4.57
2017-12-04T00:34:38.487Z,4.62
2017-12-04T00:35:48.475Z,4.67
2017-12-04T00:36:57.930Z,4.59
2017-12-04T00:38:07.125Z,4.67
2017-12-04T00:39:16.855Z,4.62
2017-12-04T00:40:26.577Z,4.64
2017-12-04T00:41:36.561Z,4.68
2017-12-04T00:42:46.284Z,4.68
2017-12-04T00:43:56.007Z,4.68
2017-12-04T00:45:05.483Z,4.68
2017-12-04T00:46:15.220Z,4.62
2017-12-04T00:47:24.940Z,4.65
2017-12-04T00:48:34.978Z,4.65
2017-12-04T00:49:44.977Z,4.71
2017-12-04T00:50:54.695Z,4.71
2017-12-04T00:52:04.736Z,4.69
2017-12-04T00:53:13.984Z,4.67
2017-12-04T00:54:23.987Z,4.62
2017-12-04T00:55:33.466Z,4.79
2017-12-04T00:56:42.943Z,4.79
2017-12-04T00:57:52.442Z,4.83
2017-12-04T00:59:01.647Z,4.72
2017-12-04T01:00:11.381Z,4.74
2017-12-04T01:01:20.884Z,4.77
2017-12-04T01:02:30.607Z,4.74
2017-12-04T01:03:40.347Z,4.77
2017-12-04T01:04:49.277Z,4.77
2017-12-04T01:05:58.471Z,4.8
2017-12-04T01:07:08.256Z,4.74
2017-12-04T01:08:18.294Z,4.75
2017-12-04T01:09:28.026Z,4.75
2017-12-04T01:10:38.023Z,4.72
2017-12-04T01:11:47.756Z,4.8
2017-12-04T01:12:57.757Z,4.83
2017-12-04T01:14:07.991Z,4.9
2017-12-04T01:15:16.666Z,4.9
2017-12-04T01:16:26.384Z,4.96
2017-12-04T01:17:36.105Z,4.97
2017-12-04T01:18:45.826Z,4.87
2017-12-04T01:19:55.571Z,4.93
2017-12-04T01:21:05.556Z,4.99
2017-12-04T01:22:15.365Z,4.88
2017-12-04T01:23:24.903Z,4.9
2017-12-04T01:24:34.789Z,5.01
2017-12-04T01:25:44.819Z,4.97
2017-12-04T01:26:54.808Z,4.97
2017-12-04T01:28:04.535Z,4.88
2017-12-04T01:29:13.480Z,4.96
2017-12-04T01:30:22.942Z,4.96
2017-12-04T01:31:32.944Z,5.09
2017-12-04T01:32:42.930Z,5.04
2017-12-04T01:33:52.390Z,4.99
2017-12-04T01:35:02.134Z,5.01
2017-12-04T01:36:11.322Z,4.99
2017-12-04T01:37:21.122Z,5.01
2017-12-04T01:38:31.183Z,4.96
2017-12-04T01:39:41.179Z,4.86
2017-12-04T01:40:50.902Z,4.9
2017-12-04T01:42:00.895Z,5.01
2017-12-04T01:43:10.887Z,4.93
2017-12-04T01:44:20.890Z,5.01
2017-12-04T01:45:30.624Z,4.87
2017-12-04T01:46:40.606Z,4.91
2017-12-04T01:47:50.596Z,4.9
2017-12-04T01:49:00.079Z,4.97
2017-12-04T01:50:09.806Z,4.87
2017-12-04T01:51:19.795Z,4.87
2017-12-04T01:52:28.723Z,4.96
2017-12-04T01:53:38.448Z,5.01
2017-12-04T01:54:48.435Z,5.04
2017-12-04T01:55:58.420Z,5.06
2017-12-04T01:57:08.407Z,5.01
2017-12-04T01:58:18.130Z,4.99
2017-12-04T01:59:28.118Z,5.02
2017-12-04T02:00:38.107Z,4.99
2017-12-04T02:01:47.978Z,4.97
2017-12-04T02:02:57.706Z,4.99
2017-12-04T02:04:07.424Z,5.02
2017-12-04T02:05:17.138Z,5.09
2017-12-04T02:06:27.129Z,5.05
2017-12-04T02:07:36.841Z,5.05
2017-12-04T02:08:46.823Z,5.08
2017-12-04T02:09:56.799Z,5.09
2017-12-04T02:11:06.588Z,5.11
2017-12-04T02:12:16.562Z,5.15
2017-12-04T02:13:26.538Z,5.17
2017-12-04T02:14:35.986Z,5.12
2017-12-04T02:15:45.962Z,5.08
2017-12-04T02:16:55.939Z,5.15
2017-12-04T02:18:05.926Z,5.2
2017-12-04T02:19:15.643Z,5.19
2017-12-04T02:20:25.364Z,5.08
2017-12-04T02:21:35.084Z,5.12
2017-12-04T02:22:44.532Z,5.12
2017-12-04T02:23:54.507Z,5.11
2017-12-04T02:25:04.492Z,5.14
2017-12-04T02:26:14.470Z,5.14
2017-12-04T02:27:24.183Z,5.17
2017-12-04T02:28:33.627Z,5.15
2017-12-04T02:29:43.603Z,5.2
2017-12-04T02:30:53.048Z,5.22
2017-12-04T02:32:02.504Z,5.22
2017-12-04T02:33:11.682Z,5.2
2017-12-04T02:34:21.394Z,5.22
2017-12-04T02:35:31.118Z,5.19
2017-12-04T02:36:40.863Z,5.09
2017-12-04T02:37:50.849Z,5.14
2017-12-04T02:39:00.289Z,5.12
2017-12-04T02:40:10.007Z,5.2
2017-12-04T02:41:19.724Z,5.2
2017-12-04T02:42:29.728Z,5.14
2017-12-04T02:43:39.180Z,5.14
2017-12-04T02:44:48.895Z,5.14
2017-12-04T02:45:58.343Z,5.17
2017-12-04T02:47:08.057Z,5.17
2017-12-04T02:48:18.039Z,5.24
2017-12-04T02:49:28.019Z,5.22
2017-12-04T02:50:37.736Z,5.24
2017-12-04T02:51:47.721Z,5.24
2017-12-04T02:52:57.448Z,5.19
2017-12-04T02:54:07.440Z,5.29
2017-12-04T02:55:17.193Z,5.35
2017-12-04T02:56:26.900Z,5.22
2017-12-04T02:57:36.880Z,5.24
2017-12-04T02:58:46.859Z,5.23
2017-12-04T02:59:56.566Z,5.24
2017-12-04T03:01:06.558Z,5.26
2017-12-04T03:02:16.002Z,5.23
2017-12-04T03:03:25.979Z,5.26
2017-12-04T03:04:35.986Z,5.2
2017-12-04T03:05:45.964Z,5.32
2017-12-04T03:06:55.938Z,5.22
2017-12-04T03:08:06.228Z,5.3
2017-12-04T03:09:15.941Z,5.32
2017-12-04T03:10:25.993Z,5.23
2017-12-04T03:11:35.970Z,5.32
2017-12-04T03:12:45.955Z,5.15
2017-12-04T03:13:55.936Z,5.23
2017-12-04T03:15:05.125Z,5.29
2017-12-04T03:16:14.835Z,5.29
2017-12-04T03:17:24.552Z,5.32
2017-12-04T03:18:34.271Z,5.32
2017-12-04T03:19:43.450Z,5.35
2017-12-04T03:20:53.426Z,5.35
2017-12-04T03:22:03.142Z,5.42
2017-12-04T03:23:12.864Z,5.37
2017-12-04T03:24:23.091Z,5.38
2017-12-04T03:25:32.886Z,5.49
2017-12-04T03:26:42.878Z,5.4
2017-12-04T03:27:52.595Z,5.48
2017-12-04T03:29:02.557Z,5.44
2017-12-04T03:30:12.011Z,5.4
2017-12-04T03:31:21.746Z,5.44
2017-12-04T03:32:31.208Z,5.37
2017-12-04T03:33:40.657Z,5.44
2017-12-04T03:34:50.370Z,5.4
2017-12-04T03:36:00.088Z,5.4
2017-12-04T03:37:10.067Z,5.45
2017-12-04T03:38:19.514Z,5.48
2017-12-04T03:39:28.961Z,5.45
2017-12-04T03:40:38.689Z,5.4
2017-12-04T03:41:48.400Z,5.49
2017-12-04T03:42:58.382Z,5.47
2017-12-04T03:44:08.357Z,5.41
2017-12-04T03:45:17.326Z,5.45
2017-12-04T03:46:27.316Z,5.45
2017-12-04T03:47:37.302Z,5.44
2017-12-04T03:48:46.482Z,5.35
2017-12-04T03:49:57.449Z,5.4
2017-12-04T03:51:06.896Z,5.37
2017-12-04T03:52:16.341Z,5.41
2017-12-04T03:53:26.326Z,5.38
2017-12-04T03:54:36.304Z,5.35
2017-12-04T03:55:46.286Z,5.3
2017-12-04T03:56:56.285Z,5.4
2017-12-04T03:58:06.269Z,5.33
2017-12-04T03:59:16.252Z,5.4
2017-12-04T04:00:25.965Z,5.42
2017-12-04T04:01:35.740Z,5.37
2017-12-04T04:02:45.454Z,5.44
2017-12-04T04:03:55.434Z,5.47
2017-12-04T04:05:04.885Z,5.48
2017-12-04T04:06:14.599Z,5.48
2017-12-04T04:07:24.426Z,5.45
2017-12-04T04:08:34.139Z,5.48
2017-12-04T04:09:43.850Z,5.45
2017-12-04T04:10:53.570Z,5.42
2017-12-04T04:12:03.015Z,5.44
2017-12-04T04:13:12.739Z,5.51
2017-12-04T04:14:22.460Z,5.44
2017-12-04T04:15:32.436Z,5.55
2017-12-04T04:16:41.883Z,5.49
2017-12-04T04:17:51.910Z,5.51
2017-12-04T04:19:02.426Z,5.51
2017-12-04T04:20:12.141Z,5.49
2017-12-04T04:21:22.126Z,5.51
2017-12-04T04:22:31.846Z,5.47
2017-12-04T04:23:41.555Z,5.62
2017-12-04T04:24:51.271Z,5.49
2017-12-04T04:26:00.988Z,5.6
2017-12-04T04:27:11.020Z,5.6
2017-12-04T04:28:20.619Z,5.59
2017-12-04T04:29:30.606Z,5.56
2017-12-04T04:30:40.323Z,5.66
2017-12-04T04:31:49.766Z,5.58
2017-12-04T04:32:59.750Z,5.66
2017-12-04T04:34:09.211Z,5.66
2017-12-04T04:35:18.662Z,5.59
2017-12-04T04:36:28.641Z,5.7
2017-12-04T04:37:38.090Z,5.73
2017-12-04T04:38:48.076Z,5.73
2017-12-04T04:39:58.059Z,5.63
2017-12-04T04:41:08.043Z,5.7
2017-12-04T04:42:18.022Z,5.7
2017-12-04T04:43:28.008Z,5.77
2017-12-04T04:44:37.995Z,5.75
2017-12-04T04:45:47.989Z,5.69
2017-12-04T04:46:57.975Z,5.77
2017-12-04T04:48:07.696Z,5.66
2017-12-04T04:49:17.976Z,5.74
2017-12-04T04:50:27.687Z,5.74
2017-12-04T04:51:37.136Z,5.8
2017-12-04T04:52:46.906Z,5.78
2017-12-04T04:53:56.637Z,5.8
2017-12-04T04:55:06.627Z,5.75
2017-12-04T04:56:16.620Z,5.8
2017-12-04T04:57:26.605Z,5.7
2017-12-04T04:58:36.324Z,5.81
2017-12-04T04:59:46.346Z,5.77
2017-12-04T05:00:56.060Z,5.73
2017-12-04T05:02:06.045Z,5.8
2017-12-04T05:03:16.023Z,5.87
2017-12-04T05:04:25.740Z,5.77
2017-12-04T05:05:35.703Z,5.83
2017-12-04T05:06:45.420Z,5.83
2017-12-04T05:07:55.397Z,5.81
2017-12-04T05:09:04.583Z,5.88
2017-12-04T05:10:14.621Z,5.77
2017-12-04T05:11:24.332Z,5.78
2017-12-04T05:12:34.047Z,5.81
2017-12-04T05:13:43.765Z,5.81
2017-12-04T05:14:53.752Z,5.85
2017-12-04T05:16:03.738Z,5.74
2017-12-04T05:17:13.453Z,5.81
2017-12-04T05:18:23.442Z,5.74
2017-12-04T05:19:33.420Z,5.8
2017-12-04T05:20:43.149Z,5.77
2017-12-04T05:21:53.142Z,5.81
2017-12-04T05:23:03.118Z,5.92
2017-12-04T05:24:12.841Z,5.77
2017-12-04T05:25:22.819Z,5.77
2017-12-04T05:26:32.809Z,5.73
2017-12-04T05:27:42.260Z,5.75
2017-12-04T05:28:51.961Z,5.8
2017-12-04T05:30:01.989Z,5.8
2017-12-04T05:31:11.451Z,5.78
2017-12-04T05:32:21.164Z,5.77
2017-12-04T05:33:31.144Z,5.78
2017-12-04T05:34:40.742Z,5.84
2017-12-04T05:35:50.458Z,5.83
2017-12-04T05:37:00.438Z,5.75
2017-12-04T05:38:09.884Z,5.77
2017-12-04T05:39:19.600Z,5.83
2017-12-04T05:40:29.577Z,5.85
2017-12-04T05:41:39.555Z,5.84
2017-12-04T05:42:49.009Z,5.93
2017-12-04T05:43:58.995Z,5.85
2017-12-04T05:45:08.973Z,5.88
2017-12-04T05:46:18.731Z,5.83
2017-12-04T05:47:28.449Z,5.83
2017-12-04T05:48:38.480Z,5.83
2017-12-04T05:49:48.459Z,5.87
2017-12-04T05:50:58.441Z,5.83
2017-12-04T05:52:08.424Z,5.8
2017-12-04T05:53:17.870Z,5.84
2017-12-04T05:54:27.600Z,5.83
2017-12-04T05:55:37.325Z,5.81
2017-12-04T05:56:47.317Z,5.85
2017-12-04T05:57:57.033Z,5.81
2017-12-04T05:59:07.010Z,5.87
2017-12-04T06:00:16.731Z,5.87
2017-12-04T06:01:26.449Z,5.83
2017-12-04T06:02:36.429Z,5.83
2017-12-04T06:03:46.160Z,5.85
2017-12-04T06:04:56.282Z,5.87
2017-12-04T06:06:06.431Z,5.84
2017-12-04T06:07:16.416Z,5.8
2017-12-04T06:08:26.425Z,5.84
2017-12-04T06:09:36.461Z,5.87
2017-12-04T06:10:45.908Z,5.83
2017-12-04T06:11:55.377Z,5.88
2017-12-04T06:13:05.099Z,5.84
2017-12-04T06:14:15.083Z,5.85
2017-12-04T06:15:24.529Z,5.88
2017-12-04T06:16:34.507Z,5.77
2017-12-04T06:17:44.493Z,5.83
2017-12-04T06:18:54.299Z,5.81
2017-12-04T06:20:04.389Z,5.92
2017-12-04T06:21:14.233Z,5.98
2017-12-04T06:22:24.074Z,5.92
2017-12-04T06:23:33.446Z,5.85
2017-12-04T06:24:43.205Z,5.92
2017-12-04T06:25:52.931Z,6.01
2017-12-04T06:27:02.107Z,5.9
2017-12-04T06:28:11.821Z,6.03
2017-12-04T06:29:21.537Z,5.95
2017-12-04T06:30:31.517Z,5.98
2017-12-04T06:31:41.497Z,5.99
2017-12-04T06:32:51.214Z,5.98
2017-12-04T06:34:01.210Z,6.01
2017-12-04T06:35:10.686Z,5.98
2017-12-04T06:36:20.672Z,6.03
2017-12-04T06:37:30.390Z,6.02
2017-12-04T06:38:39.850Z,5.98
2017-12-04T06:39:49.563Z,5.98
2017-12-04T06:40:59.279Z,6.01
2017-12-04T06:42:08.537Z,6.01
2017-12-04T06:43:18.688Z,6.01
2017-12-04T06:44:28.653Z,5.98
2017-12-04T06:45:38.220Z,5.98
2017-12-04T06:46:47.959Z,5.98
2017-12-04T06:47:57.983Z,5.98
2017-12-04T06:49:08.028Z,6.05
2017-12-04T06:50:17.999Z,6.01
2017-12-04T06:51:27.729Z,6.03
2017-12-04T06:52:37.763Z,5.98
2017-12-04T06:53:47.223Z,5.98
2017-12-04T06:54:57.203Z,6.02
2017-12-04T06:56:06.656Z,6.02
2017-12-04T06:57:16.636Z,6.08
2017-12-04T06:58:26.086Z,6.03
2017-12-04T06:59:36.096Z,6.08
2017-12-04T07:00:45.572Z,6.14
2017-12-04T07:01:55.575Z,6.14
2017-12-04T07:03:05.569Z,6.17
2017-12-04T07:04:15.559Z,6.19
2017-12-04T07:05:25.555Z,6.11
2017-12-04T07:06:35.811Z,6.16
2017-12-04T07:07:45.792Z,6.14
2017-12-04T07:08:54.983Z,6.17
2017-12-04T07:10:04.169Z,6.19
2017-12-04T07:11:14.259Z,6.16
2017-12-04T07:12:23.765Z,6.2
2017-12-04T07:13:33.571Z,6.14
2017-12-04T07:14:43.287Z,6.2
2017-12-04T07:15:53.001Z,6.14
2017-12-04T07:17:02.750Z,6.2
2017-12-04T07:18:12.742Z,6.21
2017-12-04T07:19:22.185Z,6.27
2017-12-04T07:20:31.893Z,6.28
2017-12-04T07:21:41.870Z,6.16
2017-12-04T07:22:51.855Z,6.25
2017-12-04T07:24:01.574Z,6.2
2017-12-04T07:25:11.290Z,6.25
2017-12-04T07:26:20.476Z,6.3
2017-12-04T07:27:29.928Z,6.35
2017-12-04T07:28:39.110Z,6.36
2017-12-04T07:29:49.099Z,6.27
2017-12-04T07:30:58.348Z,6.28
2017-12-04T07:32:08.465Z,6.25
2017-12-04T07:33:17.929Z,6.24
2017-12-04T07:34:27.778Z,6.19
2017-12-04T07:35:37.757Z,6.19
2017-12-04T07:36:47.473Z,6.3
2017-12-04T07:37:57.450Z,6.33
2017-12-04T07:39:07.171Z,6.36
2017-12-04T07:40:16.628Z,6.3
2017-12-04T07:41:26.354Z,6.33
2017-12-04T07:42:36.590Z,6.33
2017-12-04T07:43:46.573Z,6.3
2017-12-04T07:44:56.289Z,6.4
2017-12-04T07:46:06.010Z,6.43
2017-12-04T07:47:15.993Z,6.25
2017-12-04T07:48:25.983Z,6.4
2017-12-04T07:49:36.021Z,6.36
2017-12-04T07:50:45.747Z,6.42
2017-12-04T07:51:55.733Z,6.33
2017-12-04T07:53:05.489Z,6.39
2017-12-04T07:54:15.468Z,6.4
2017-12-04T07:55:24.930Z,6.4
2017-12-04T07:56:34.117Z,6.39
2017-12-04T07:57:43.834Z,6.45
2017-12-04T07:58:53.562Z,6.45
2017-12-04T08:00:03.544Z,6.61
2017-12-04T08:01:13.269Z,6.6
2017-12-04T08:02:22.980Z,6.61
2017-12-04T08:03:32.964Z,6.6
2017-12-04T08:04:42.427Z,6.63
2017-12-04T08:05:52.143Z,6.68
2017-12-04T08:07:01.596Z,6.63
2017-12-04T08:08:11.575Z,6.61
2017-12-04T08:09:21.549Z,6.55
2017-12-04T08:10:31.312Z,6.63
2017-12-04T08:11:40.760Z,6.68
2017-12-04T08:12:50.544Z,6.71
2017-12-04T08:14:00.522Z,6.72
2017-12-04T08:15:10.236Z,6.73
2017-12-04T08:16:20.247Z,6.75
2017-12-04T08:17:30.261Z,6.73
2017-12-04T08:18:39.999Z,6.69
2017-12-04T08:19:49.463Z,6.69
2017-12-04T08:20:59.697Z,6.75
2017-12-04T08:22:09.531Z,6.72
2017-12-04T08:23:19.517Z,6.76
2017-12-04T08:24:28.968Z,6.76
2017-12-04T08:25:38.694Z,6.81
2017-12-04T08:26:48.749Z,6.78
2017-12-04T08:27:58.753Z,6.79
2017-12-04T08:29:08.213Z,6.89
2017-12-04T08:30:17.932Z,6.86
2017-12-04T08:31:27.654Z,6.78
2017-12-04T08:32:37.374Z,6.78
2017-12-04T08:33:46.837Z,6.89
2017-12-04T08:34:56.552Z,6.81
2017-12-04T08:36:06.557Z,6.9
2017-12-04T08:37:16.272Z,6.9
2017-12-04T08:38:26.261Z,6.91
2017-12-04T08:39:35.978Z,6.89
2017-12-04T08:40:45.967Z,6.89
2017-12-04T08:41:55.674Z,6.93
2017-12-04T08:43:05.669Z,6.87
2017-12-04T08:44:15.444Z,6.87
2017-12-04T08:45:25.198Z,6.96
2017-12-04T08:46:34.913Z,6.87
2017-12-04T08:47:44.887Z,6.93
2017-12-04T08:48:54.900Z,6.9
2017-12-04T08:50:04.912Z,6.89
2017-12-04T08:51:14.368Z,6.81
2017-12-04T08:52:24.088Z,6.94
2017-12-04T08:53:34.114Z,6.9
2017-12-04T08:54:44.101Z,7
2017-12-04T08:55:54.091Z,6.91
2017-12-04T08:57:03.547Z,7
2017-12-04T08:58:13.004Z,7
2017-12-04T08:59:22.724Z,7.04
2017-12-04T09:00:32.471Z,7.01
2017-12-04T09:01:41.928Z,6.91
2017-12-04T09:02:51.644Z,6.96
2017-12-04T09:04:00.924Z,7
2017-12-04T09:05:11.150Z,6.97
2017-12-04T09:06:20.774Z,6.99
2017-12-04T09:07:30.497Z,7
2017-12-04T09:08:40.210Z,6.97
2017-12-04T09:09:49.673Z,7.01
2017-12-04T09:10:59.369Z,7.04
2017-12-04T09:12:09.133Z,7.05
2017-12-04T09:13:18.580Z,6.99
2017-12-04T09:14:28.556Z,7.08
2017-12-04T09:15:38.041Z,7.07
2017-12-04T09:16:48.085Z,7.07
2017-12-04T09:17:57.534Z,6.99
2017-12-04T09:19:07.533Z,7.01
2017-12-04T09:20:17.248Z,7.07
2017-12-04T09:21:26.973Z,7.09
2017-12-04T09:22:36.686Z,7.09
2017-12-04T09:23:46.136Z,7.23
2017-12-04T09:24:55.853Z,7.19
2017-12-04T09:26:05.837Z,7.3
2017-12-04T09:27:15.817Z,7.24
2017-12-04T09:28:25.529Z,7.26
2017-12-04T09:29:34.976Z,7.36
2017-12-04T09:30:44.950Z,7.34
2017-12-04T09:31:54.730Z,7.42
2017-12-04T09:33:04.184Z,7.45
2017-12-04T09:34:13.978Z,7.51
2017-12-04T09:35:23.962Z,7.55
2017-12-04T09:36:33.678Z,7.63
2017-12-04T09:37:43.394Z,7.85
2017-12-04T09:38:53.110Z,7.94
2017-12-04T09:40:02.620Z,7.94
2017-12-04T09:41:12.069Z,8.02
2017-12-04T09:42:21.783Z,8.03
2017-12-04T09:43:31.553Z,8.1
2017-12-04T09:44:41.277Z,8.13
2017-12-04T09:45:50.993Z,8.09
2017-12-04T09:47:00.720Z,8.17
2017-12-04T09:48:10.432Z,8.09
2017-12-04T09:49:20.158Z,8.06
2017-12-04T09:50:29.620Z,8.07
2017-12-04T09:51:39.356Z,8.04
2017-12-04T09:52:49.354Z,8.09
2017-12-04T09:53:59.340Z,8.02
2017-12-04T09:55:09.358Z,8
2017-12-04T09:56:19.375Z,7.99
2017-12-04T09:57:29.087Z,8.03
2017-12-04T09:58:38.541Z,8.09
2017-12-04T09:59:47.859Z,8.1
2017-12-04T10:00:57.354Z,8.17
2017-12-04T10:02:07.366Z,8.1
2017-12-04T10:03:17.100Z,8.17
2017-12-04T10:04:26.817Z,8.21
2017-12-04T10:05:36.544Z,8.17
2017-12-04T10:06:46.267Z,8.27
2017-12-04T10:07:56.251Z,8.21
2017-12-04T10:09:06.649Z,8.22
2017-12-04T10:10:16.380Z,8.2
2017-12-04T10:11:25.598Z,8.04
2017-12-04T10:12:35.365Z,8.06
2017-12-04T10:13:44.821Z,8.07
2017-12-04T10:14:54.535Z,8.09
2017-12-04T10:16:04.053Z,8.09
2017-12-04T10:17:14.037Z,8.03
2017-12-04T10:18:23.800Z,8.13
2017-12-04T10:19:33.517Z,8.04
2017-12-04T10:20:43.280Z,7.99
2017-12-04T10:21:52.464Z,7.84
2017-12-04T10:23:02.185Z,7.85
2017-12-04T10:24:11.903Z,7.82
2017-12-04T10:25:21.352Z,7.85
2017-12-04T10:26:31.064Z,7.95
2017-12-04T10:27:40.781Z,8.02
2017-12-04T10:28:50.779Z,7.94
2017-12-04T10:30:00.763Z,8.03
2017-12-04T10:31:10.763Z,8.02
2017-12-04T10:32:20.492Z,8.06
2017-12-04T10:33:30.216Z,8
2017-12-04T10:34:40.226Z,7.96
2017-12-04T10:35:50.205Z,7.91
2017-12-04T10:36:59.922Z,7.82
2017-12-04T10:38:09.907Z,7.86
2017-12-04T10:39:19.897Z,7.86
2017-12-04T10:40:29.884Z,7.84
2017-12-04T10:41:39.599Z,7.81
2017-12-04T10:42:48.783Z,7.88
2017-12-04T10:43:58.515Z,7.82
2017-12-04T10:45:07.971Z,7.86
2017-12-04T10:46:17.440Z,7.89
2017-12-04T10:47:26.912Z,7.84
2017-12-04T10:48:36.371Z,7.73
2017-12-04T10:49:46.214Z,7.77
2017-12-04T10:50:55.673Z,7.84
2017-12-04T10:52:05.135Z,7.76
2017-12-04T10:53:14.873Z,7.69
2017-12-04T10:54:24.626Z,7.63
2017-12-04T10:55:34.420Z,7.86
2017-12-04T10:56:44.181Z,7.79
2017-12-04T10:57:53.934Z,7.7
2017-12-04T10:59:03.979Z,7.63
2017-12-04T11:00:13.932Z,7.77
2017-12-04T11:01:23.414Z,7.73
2017-12-04T11:02:32.873Z,7.7
2017-12-04T11:03:42.870Z,7.74
2017-12-04T11:04:52.910Z,7.7
2017-12-04T11:06:02.387Z,7.67
2017-12-04T11:07:12.117Z,7.82
2017-12-04T11:08:22.115Z,7.86
2017-12-04T11:09:32.381Z,7.84
2017-12-04T11:10:42.364Z,7.74
2017-12-04T11:11:52.346Z,7.71
2017-12-04T11:13:02.069Z,7.76
2017-12-04T11:14:11.314Z,7.79
2017-12-04T11:15:21.043Z,7.86
2017-12-04T11:16:30.650Z,7.88
2017-12-04T11:17:40.379Z,7.82
2017-12-04T11:18:50.386Z,7.82
2017-12-04T11:19:59.839Z,7.85
2017-12-04T11:21:09.842Z,7.76
2017-12-04T11:22:19.564Z,7.76
2017-12-04T11:23:29.278Z,7.85
2017-12-04T11:24:38.469Z,7.86
2017-12-04T11:25:48.455Z,7.84
2017-12-04T11:26:58.440Z,7.96
2017-12-04T11:28:08.189Z,7.92
2017-12-04T11:29:17.931Z,7.81
2017-12-04T11:30:27.925Z,7.69
2017-12-04T11:31:37.401Z,7.81
2017-12-04T11:32:46.611Z,7.81
2017-12-04T11:33:56.328Z,7.76
2017-12-04T11:35:06.053Z,7.81
2017-12-04T11:36:16.032Z,7.81
2017-12-04T11:37:26.020Z,7.84
2017-12-04T11:38:36.013Z,7.88
2017-12-04T11:39:45.752Z,7.84
2017-12-04T11:40:55.740Z,7.94
2017-12-04T11:42:05.514Z,7.91
2017-12-04T11:43:15.264Z,7.96
2017-12-04T11:44:25.271Z,7.85
2017-12-04T11:45:34.992Z,7.92
2017-12-04T11:46:44.709Z,7.85
2017-12-04T11:47:54.462Z,7.88
2017-12-04T11:49:04.177Z,7.85
2017-12-04T11:50:14.155Z,7.73
2017-12-04T11:51:23.873Z,7.74
2017-12-04T11:52:33.445Z,7.7
2017-12-04T11:53:42.903Z,7.57
2017-12-04T11:54:52.621Z,7.69
2017-12-04T11:56:02.347Z,7.74
2017-12-04T11:57:12.063Z,7.81
2017-12-04T11:58:21.779Z,7.82
2017-12-04T11:59:31.772Z,7.89
2017-12-04T12:00:41.757Z,7.85
2017-12-04T12:01:51.484Z,7.79
2017-12-04T12:03:00.407Z,7.86
2017-12-04T12:04:10.123Z,7.85
2017-12-04T12:05:20.230Z,7.89
2017-12-04T12:06:30.024Z,7.85
2017-12-04T12:07:40.020Z,7.91
2017-12-04T12:08:49.471Z,7.95
2017-12-04T12:09:59.458Z,7.89
2017-12-04T12:11:09.172Z,8.12
2017-12-04T12:12:18.889Z,8.2
2017-12-04T12:13:28.603Z,8.37
2017-12-04T12:14:37.786Z,8.36
2017-12-04T12:15:47.499Z,8.29
2017-12-04T12:16:57.581Z,8.18
2017-12-04T12:18:07.301Z,8.29
2017-12-04T12:19:16.488Z,8.25
2017-12-04T12:20:26.480Z,8.25
2017-12-04T12:21:35.938Z,8.07
2017-12-04T12:22:45.681Z,8.02
2017-12-04T12:23:54.913Z,8.1
2017-12-04T12:25:04.894Z,8.02
2017-12-04T12:26:14.677Z,8.1
2017-12-04T12:27:24.755Z,8.1
2017-12-04T12:28:34.272Z,8.21
2017-12-04T12:29:44.332Z,8.32
2017-12-04T12:30:54.910Z,8.36
2017-12-04T12:32:05.048Z,8.36
2017-12-04T12:33:15.498Z,8.29
2017-12-04T12:34:25.570Z,8.13
2017-12-04T12:35:35.395Z,8.22
2017-12-04T12:36:45.373Z,8.24
2017-12-04T12:37:55.092Z,8.37
2017-12-04T12:39:05.091Z,8.27
2017-12-04T12:40:15.087Z,8.34
2017-12-04T12:41:25.116Z,8.37
2017-12-04T12:42:35.100Z,8.32
2017-12-04T12:43:44.399Z,8.28
2017-12-04T12:44:54.117Z,8.4
2017-12-04T12:46:04.101Z,8.34
2017-12-04T12:47:13.557Z,8.29
2017-12-04T12:48:23.279Z,8.22
2017-12-04T12:49:32.936Z,8.37
2017-12-04T12:50:42.934Z,8.34
2017-12-04T12:51:52.649Z,8.36
2017-12-04T12:53:02.365Z,8.36
2017-12-04T12:54:12.121Z,8.4
2017-12-04T12:55:21.728Z,8.5
2017-12-04T12:56:31.470Z,8.57
2017-12-04T12:57:41.190Z,8.52
2017-12-04T12:58:50.902Z,8.49
2017-12-04T13:00:00.628Z,8.54
2017-12-04T13:01:10.348Z,8.58
2017-12-04T13:02:19.800Z,8.52
2017-12-04T13:03:29.646Z,8.5
2017-12-04T13:04:39.465Z,8.49
2017-12-04T13:05:49.180Z,8.49
2017-12-04T13:06:58.931Z,8.61
2017-12-04T13:08:09.424Z,8.58
2017-12-04T13:09:19.452Z,8.65
2017-12-04T13:10:29.255Z,8.61
2017-12-04T13:11:39.104Z,8.67
2017-12-04T13:12:49.106Z,8.71
2017-12-04T13:13:58.580Z,8.67
2017-12-04T13:15:08.304Z,8.75
2017-12-04T13:16:18.021Z,8.7
2017-12-04T13:17:27.865Z,8.73
2017-12-04T13:18:37.601Z,8.68
2017-12-04T13:19:47.339Z,8.54
2017-12-04T13:20:57.323Z,8.57
2017-12-04T13:22:07.077Z,8.54
2017-12-04T13:23:17.175Z,8.55
2017-12-04T13:24:26.907Z,8.63
2017-12-04T13:25:36.364Z,8.57
2017-12-04T13:26:46.352Z,8.58
2017-12-04T13:27:56.098Z,8.49
2017-12-04T13:29:06.144Z,8.65
2017-12-04T13:30:16.149Z,8.57
2017-12-04T13:31:25.865Z,8.63
2017-12-04T13:32:35.750Z,8.58
2017-12-04T13:33:45.205Z,8.67
2017-12-04T13:34:55.191Z,8.67
2017-12-04T13:36:04.927Z,8.89
2017-12-04T13:37:14.936Z,8.91
2017-12-04T13:38:25.033Z,8.93
2017-12-04T13:39:35.118Z,9.12
2017-12-04T13:40:44.595Z,9.1
2017-12-04T13:41:54.683Z,9.1
2017-12-04T13:43:04.133Z,9.1
2017-12-04T13:44:13.890Z,9.12
2017-12-04T13:45:23.871Z,9.1
2017-12-04T13:46:33.866Z,9.08
2017-12-04T13:47:43.847Z,9.01
2017-12-04T13:48:53.315Z,8.97
2017-12-04T13:50:03.300Z,8.8
2017-12-04T13:51:12.752Z,8.67
2017-12-04T13:52:22.224Z,8.67
2017-12-04T13:53:31.953Z,8.67
2017-12-04T13:54:41.940Z,8.67
2017-12-04T13:55:51.939Z,8.71
2017-12-04T13:57:01.926Z,8.75
2017-12-04T13:58:11.923Z,8.73
2017-12-04T13:59:21.655Z,8.86
2017-12-04T14:00:31.685Z,8.79
2017-12-04T14:01:41.441Z,8.82
2017-12-04T14:02:50.939Z,8.93
2017-12-04T14:04:00.692Z,8.83
2017-12-04T14:05:10.677Z,8.67
2017-12-04T14:06:20.708Z,8.7
2017-12-04T14:07:30.696Z,8.61
2017-12-04T14:08:40.484Z,8.64
2017-12-04T14:09:50.210Z,8.58
2017-12-04T14:10:59.927Z,8.65
2017-12-04T14:12:09.649Z,8.55
2017-12-04T14:13:19.400Z,8.64
2017-12-04T14:14:28.854Z,8.58
2017-12-04T14:15:38.580Z,8.67
2017-12-04T14:16:48.302Z,8.61
2017-12-04T14:17:58.110Z,8.6
2017-12-04T14:19:07.395Z,8.58
2017-12-04T14:20:17.129Z,8.54
2017-12-04T14:21:26.849Z,8.58
2017-12-04T14:22:36.831Z,8.61
2017-12-04T14:23:46.339Z,8.6
2017-12-04T14:24:56.061Z,8.61
2017-12-04T14:26:05.779Z,8.57
2017-12-04T14:27:15.848Z,8.64
2017-12-04T14:28:25.651Z,8.52
2017-12-04T14:29:35.463Z,8.58
2017-12-04T14:30:44.964Z,8.57
2017-12-04T14:31:55.326Z,8.5
2017-12-04T14:33:04.361Z,8.47
2017-12-04T14:34:14.400Z,8.54
2017-12-04T14:35:23.863Z,8.46
2017-12-04T14:36:33.839Z,8.52
2017-12-04T14:37:43.557Z,8.6
2017-12-04T14:38:53.289Z,8.55
2017-12-04T14:40:03.322Z,8.58
2017-12-04T14:41:12.825Z,8.49
2017-12-04T14:42:23.151Z,8.55
2017-12-04T14:43:32.987Z,8.46
2017-12-04T14:44:43.045Z,8.47
2017-12-04T14:45:52.516Z,8.46
2017-12-04T14:47:02.278Z,8.52
2017-12-04T14:48:12.442Z,8.45
2017-12-04T14:49:22.187Z,8.43
2017-12-04T14:50:32.227Z,8.36
2017-12-04T14:51:42.279Z,8.32
2017-12-04T14:52:52.261Z,8.34
2017-12-04T14:54:01.987Z,8.4
2017-12-04T14:55:11.706Z,8.39
2017-12-04T14:56:21.426Z,8.34
2017-12-04T14:57:30.880Z,8.39
2017-12-04T14:58:40.688Z,8.36
2017-12-04T14:59:50.141Z,8.22
2017-12-04T15:01:00.130Z,8.22
2017-12-04T15:02:09.693Z,8.28
2017-12-04T15:03:19.690Z,8.21
2017-12-04T15:04:29.426Z,8.2
2017-12-04T15:05:38.922Z,8.1
2017-12-04T15:06:48.796Z,8.22
2017-12-04T15:07:59.204Z,8.27
2017-12-04T15:09:08.928Z,8.28
2017-12-04T15:10:18.125Z,8.21
2017-12-04T15:11:27.574Z,8.28
2017-12-04T15:12:37.556Z,8.21
2017-12-04T15:13:47.010Z,8.28
2017-12-04T15:14:57.031Z,8.25
2017-12-04T15:16:06.219Z,8.22
2017-12-04T15:17:16.230Z,8.2
2017-12-04T15:18:26.231Z,8.25
2017-12-04T15:19:35.698Z,8.28
2017-12-04T15:20:45.775Z,8.18
2017-12-04T15:21:55.770Z,8.1
2017-12-04T15:23:05.536Z,8.27
2017-12-04T15:24:15.256Z,8.18
2017-12-04T15:25:25.272Z,8.2
2017-12-04T15:26:34.797Z,8.27
2017-12-04T15:27:44.809Z,8.28
2017-12-04T15:28:54.538Z,8.28
2017-12-04T15:30:04.013Z,8.22
2017-12-04T15:31:13.752Z,8.2
2017-12-04T15:32:23.584Z,8.28
2017-12-04T15:33:33.344Z,8.2